Time;durP1;ratioP1;P1;durP2;ratioP2;P2;SDS_P1;SDS_P2;PMS_P1;PMS_P2;Temp;Humidity;BMP_temperature;BMP_pressure;BME280_temperature;BME280_humidity;BME280_pressure;Samples;Min_cycle;Max_cycle;Signal;HPM_P1;HPM_P2
2021/12/31 00:01:41;;;;;;;15.82;10.20;;;;;;;4.92;77.15;95779.41;5007733;28;20037;-68
2021/12/31 00:04:06;;;;;;;15.35;10.52;;;;;;;5.19;76.90;95815.25;5008159;28;20100;-69
2021/12/31 00:06:32;;;;;;;15.75;11.52;;;;;;;5.21;76.83;95813.50;5008077;28;20033;-71
2021/12/31 00:08:58;;;;;;;19.58;12.98;;;;;;;5.22;76.98;95812.63;5008194;28;20026;-69
2021/12/31 00:11:23;;;;;;;15.07;10.23;;;;;;;5.25;76.84;95822.75;5011492;28;20022;-69
2021/12/31 00:13:49;;;;;;;15.38;10.35;;;;;;;5.19;76.82;95822.94;5012302;28;20099;-69
2021/12/31 00:16:14;;;;;;;17.92;12.05;;;;;;;4.89;76.98;95782.03;5011758;28;20104;-68
2021/12/31 00:18:40;;;;;;;18.92;11.73;;;;;;;5.11;77.00;95835.94;5010583;28;20072;-68
2021/12/31 00:21:06;;;;;;;17.63;11.43;;;;;;;4.78;77.75;95799.38;5010770;28;20038;-68
2021/12/31 00:23:31;;;;;;;17.15;11.98;;;;;;;5.20;77.17;95846.78;5011847;28;20030;-69
2021/12/31 00:25:57;;;;;;;18.05;11.43;;;;;;;4.96;77.19;95803.97;5011528;28;20041;-69
2021/12/31 00:28:23;;;;;;;16.38;11.43;;;;;;;4.79;77.39;95781.47;5011478;28;20026;-72
2021/12/31 00:30:53;;;;;;;16.77;12.27;;;;;;;4.72;77.13;95764.63;5011822;28;20409;-71
2021/12/31 00:33:19;;;;;;;18.17;11.90;;;;;;;4.99;77.54;95807.34;5011683;28;20411;-68
2021/12/31 00:35:45;;;;;;;18.00;11.80;;;;;;;5.18;76.96;95831.47;5011979;28;20018;-69
2021/12/31 00:38:10;;;;;;;16.50;12.43;;;;;;;5.23;76.84;95847.56;5011099;28;20718;-67
2021/12/31 00:40:36;;;;;;;17.92;12.13;;;;;;;5.23;76.60;95846.69;5011280;28;20022;-67
2021/12/31 00:43:02;;;;;;;17.50;11.73;;;;;;;5.36;76.44;95849.75;5011484;28;20062;-68
2021/12/31 00:45:27;;;;;;;19.73;13.63;;;;;;;4.54;76.16;95720.00;5011309;28;20450;-68
2021/12/31 00:47:54;;;;;;;17.63;11.68;;;;;;;5.08;76.24;95813.03;5011514;28;20030;-68
2021/12/31 00:50:20;;;;;;;18.98;12.05;;;;;;;5.11;76.11;95799.31;5010805;28;20029;-69
2021/12/31 00:52:46;;;;;;;19.10;12.55;;;;;;;5.23;76.37;95814.31;5011571;28;20029;-68
2021/12/31 00:55:12;;;;;;;19.95;12.77;;;;;;;5.20;76.22;95811.84;5010023;28;20045;-68
2021/12/31 00:57:38;;;;;;;21.83;13.63;;;;;;;5.18;76.70;95803.34;5011354;28;20446;-67
2021/12/31 01:00:06;;;;;;;22.92;14.35;;;;;;;5.17;76.71;95806.81;5011479;28;20163;-68
2021/12/31 01:02:32;;;;;;;19.60;13.07;;;;;;;5.11;76.39;95812.09;5010820;28;20409;-68
2021/12/31 01:04:58;;;;;;;21.40;14.27;;;;;;;5.00;76.60;95780.88;5011118;28;20029;-68
2021/12/31 01:07:23;;;;;;;20.77;13.40;;;;;;;5.15;76.22;95803.47;5010939;28;20026;-67
2021/12/31 01:09:49;;;;;;;22.67;14.20;;;;;;;5.26;75.92;95815.91;5010829;28;20026;-68
2021/12/31 01:12:15;;;;;;;20.92;13.80;;;;;;;4.77;75.91;95741.47;5010767;28;20026;-68
2021/12/31 01:14:58;;;;;;;22.52;13.35;;;;;;;5.27;75.41;95804.81;5010347;28;20022;-68
2021/12/31 01:18:03;;;;;;;16.55;11.10;;;;;;;5.24;75.68;95813.41;5010792;28;20088;-70
2021/12/31 01:20:11;;;;;;;18.23;12.30;;;;;;;5.23;75.50;95806.63;5009576;28;20203;-68
2021/12/31 01:22:36;;;;;;;19.35;12.32;;;;;;;5.26;75.42;95824.44;5010192;28;20068;-68
2021/12/31 01:25:04;;;;;;;17.98;11.13;;;;;;;5.25;75.13;95814.25;5010457;28;20050;-68
2021/12/31 01:27:31;;;;;;;15.45;9.85;;;;;;;5.28;74.94;95832.91;5010375;28;20022;-68
2021/12/31 01:29:56;;;;;;;18.42;10.40;;;;;;;5.29;74.61;95842.25;5008588;28;20096;-67
2021/12/31 01:32:22;;;;;;;13.18;9.02;;;;;;;4.86;74.37;95769.34;5009796;28;20455;-68
2021/12/31 01:34:48;;;;;;;14.98;9.25;;;;;;;5.24;73.71;95817.69;5010623;28;20211;-68
2021/12/31 01:37:13;;;;;;;14.55;9.57;;;;;;;4.71;73.96;95736.56;5009792;28;20045;-70
2021/12/31 01:39:39;;;;;;;12.65;9.48;;;;;;;5.36;73.29;95831.84;5010124;28;20037;-68
2021/12/31 01:42:08;;;;;;;16.17;9.90;;;;;;;5.18;73.50;95807.63;5010418;28;20018;-67
2021/12/31 01:44:41;;;;;;;12.73;8.35;;;;;;;5.07;73.29;95788.34;5009977;28;20784;-70
2021/12/31 01:47:11;;;;;;;13.38;9.00;;;;;;;5.28;73.36;95835.47;5010283;28;20079;-68
2021/12/31 01:49:40;;;;;;;15.38;10.38;;;;;;;5.10;73.63;95831.72;5008298;28;20489;-68
2021/12/31 01:52:09;;;;;;;14.80;9.73;;;;;;;4.90;74.00;95805.88;5009739;28;20649;-68
2021/12/31 01:54:38;;;;;;;14.60;9.40;;;;;;;5.09;74.09;95847.94;5010262;28;20050;-68
2021/12/31 01:57:09;;;;;;;13.63;8.93;;;;;;;4.44;73.94;95741.53;5009501;28;20049;-67
2021/12/31 01:59:35;;;;;;;;;;;;;;;5.10;73.96;95849.63;5010510;28;20026;-68
2021/12/31 02:02:01;;;;;;;13.38;8.80;;;;;;;5.01;74.24;95838.81;5009174;28;19921;-68
2021/12/31 02:04:29;;;;;;;12.55;9.00;;;;;;;5.16;74.54;95858.81;5009767;28;20021;-68
2021/12/31 02:06:56;;;;;;;13.10;9.13;;;;;;;5.11;73.76;95833.38;5009763;28;20080;-71
2021/12/31 02:09:23;;;;;;;13.38;8.68;;;;;;;5.19;73.60;95851.06;5009687;28;20182;-71
2021/12/31 02:11:49;;;;;;;12.07;7.95;;;;;;;5.03;73.43;95835.31;5010054;28;20054;-69
2021/12/31 02:14:15;;;;;;;13.38;9.55;;;;;;;5.07;73.96;95843.75;5008969;28;20068;-68
2021/12/31 02:16:41;;;;;;;14.15;9.60;;;;;;;4.66;73.93;95785.25;5009201;28;20022;-72
2021/12/31 02:19:17;;;;;;;13.63;9.38;;;;;;;4.83;74.56;95809.47;5009771;28;20113;-68
2021/12/31 02:21:44;;;;;;;13.07;8.50;;;;;;;5.13;73.68;95852.09;5009324;28;20037;-66
2021/12/31 02:24:10;;;;;;;12.88;8.23;;;;;;;5.15;73.83;95854.59;5009487;28;20034;-68
2021/12/31 02:26:36;;;;;;;12.48;7.28;;;;;;;4.97;73.33;95832.94;5008812;28;20034;-68
2021/12/31 02:29:02;;;;;;;11.95;7.78;;;;;;;4.93;73.65;95827.06;5009337;28;20036;-68
2021/12/31 02:31:27;;;;;;;13.23;8.15;;;;;;;5.19;73.22;95861.28;5008887;28;20034;-69
2021/12/31 02:33:53;;;;;;;13.55;8.50;;;;;;;4.80;72.68;95789.94;5008605;28;20034;-68
2021/12/31 02:36:19;;;;;;;11.75;6.97;;;;;;;4.81;72.67;95793.38;5008866;28;20037;-68
2021/12/31 02:38:45;;;;;;;12.82;8.48;;;;;;;5.10;72.62;95848.75;5008791;28;20034;-70
2021/12/31 02:41:10;;;;;;;11.85;7.68;;;;;;;5.06;73.20;95862.53;5009212;28;20390;-70
2021/12/31 02:43:38;;;;;;;11.93;7.35;;;;;;;4.94;73.54;95850.91;5009431;28;20040;-69
2021/12/31 02:46:04;;;;;;;16.60;9.48;;;;;;;4.50;73.70;95772.03;5007921;28;20026;-69
2021/12/31 02:48:29;;;;;;;13.00;6.85;;;;;;;4.93;73.86;95873.06;5008899;28;20543;-69
2021/12/31 02:50:57;;;;;;;12.73;7.40;;;;;;;4.91;74.62;95882.50;5008635;28;20061;-68
2021/12/31 02:53:31;;;;;;;15.65;9.73;;;;;;;4.97;73.97;95877.22;5009214;28;20113;-67
2021/12/31 02:56:04;;;;;;;15.25;9.52;;;;;;;5.05;73.87;95871.91;5009048;28;20030;-68
2021/12/31 02:58:31;;;;;;;11.52;7.60;;;;;;;4.89;72.76;95850.22;5008692;28;20461;-66
2021/12/31 03:00:57;;;;;;;12.75;7.35;;;;;;;4.73;72.54;95842.13;5008815;28;20470;-70
2021/12/31 03:03:24;;;;;;;10.88;7.63;;;;;;;4.90;72.88;95891.06;5008354;28;20168;-68
2021/12/31 03:05:53;;;;;;;10.85;7.63;;;;;;;4.72;72.91;95865.97;5008725;28;20041;-68
2021/12/31 03:08:21;;;;;;;14.35;8.35;;;;;;;4.62;72.33;95856.88;5007639;28;20030;-68
2021/12/31 03:10:49;;;;;;;12.13;7.55;;;;;;;4.51;72.86;95844.38;5008706;28;20175;-69
2021/12/31 03:13:16;;;;;;;9.88;6.93;;;;;;;4.70;72.56;95898.41;5008445;28;20022;-68
2021/12/31 03:15:42;;;;;;;10.63;7.03;;;;;;;4.22;72.49;95836.59;5008573;28;20478;-68
2021/12/31 03:18:10;;;;;;;11.95;7.30;;;;;;;4.65;72.40;95898.50;5008443;28;20029;-69
2021/12/31 03:20:37;;;;;;;11.10;7.20;;;;;;;4.61;72.24;95907.16;5008565;28;20041;-69
2021/12/31 03:23:05;;;;;;;11.88;7.80;;;;;;;4.65;72.83;95900.25;5008190;28;20257;-69
2021/12/31 03:25:32;;;;;;;13.55;7.82;;;;;;;4.64;71.85;95903.66;5008222;28;20036;-67
2021/12/31 03:27:57;;;;;;;11.20;7.30;;;;;;;4.64;72.50;95903.66;5008396;28;20025;-67
2021/12/31 03:30:23;;;;;;;11.90;7.10;;;;;;;4.54;71.62;95896.25;5008148;28;20029;-70
2021/12/31 03:32:48;;;;;;;12.07;8.27;;;;;;;4.54;72.07;95920.94;5008228;28;20037;-68
2021/12/31 03:35:14;;;;;;;7.50;5.68;;;;;;;4.56;71.44;95921.75;5008088;28;20056;-68
2021/12/31 03:37:39;;;;;;;9.45;5.18;;;;;;;4.10;71.50;95847.13;5008129;28;20369;-68
2021/12/31 03:40:06;;;;;;;10.82;6.82;;;;;;;4.26;71.24;95885.03;5008135;28;20032;-67
2021/12/31 03:42:32;;;;;;;8.95;6.35;;;;;;;4.41;71.79;95922.94;5008198;28;20418;-68
2021/12/31 03:44:58;;;;;;;8.65;6.30;;;;;;;4.35;71.44;95923.94;5007778;28;20141;-66
2021/12/31 03:47:23;;;;;;;10.93;6.95;;;;;;;4.33;71.78;95928.25;5008118;28;20060;-68
2021/12/31 03:49:49;;;;;;;8.57;6.03;;;;;;;4.27;71.53;95927.56;5007465;28;20112;-68
2021/12/31 03:52:14;;;;;;;10.45;7.30;;;;;;;3.98;71.77;95889.06;5008094;28;20084;-68
2021/12/31 03:54:40;;;;;;;9.45;6.95;;;;;;;4.31;71.76;95924.06;5007972;28;20026;-69
2021/12/31 03:57:05;;;;;;;10.52;7.50;;;;;;;4.38;71.35;95928.16;5007928;28;20056;-68
2021/12/31 03:59:30;;;;;;;11.57;7.38;;;;;;;4.00;71.63;95863.50;5007834;28;20477;-68
2021/12/31 04:01:56;;;;;;;9.15;5.18;;;;;;;4.15;72.03;95924.44;5007390;28;20061;-67
2021/12/31 04:04:21;;;;;;;11.05;6.72;;;;;;;4.27;72.26;95935.22;5008236;28;20049;-69
2021/12/31 04:06:47;;;;;;;12.98;8.55;;;;;;;4.16;72.60;95920.97;5008022;28;20404;-68
2021/12/31 04:09:12;;;;;;;9.70;6.85;;;;;;;4.15;72.66;95926.13;5008531;28;20477;-68
2021/12/31 04:11:38;;;;;;;11.18;7.60;;;;;;;3.94;73.42;95907.06;5008207;28;20033;-68
2021/12/31 04:14:03;;;;;;;10.68;7.45;;;;;;;3.32;73.14;95814.03;5007507;28;20026;-69
2021/12/31 04:16:30;;;;;;;12.77;7.63;;;;;;;3.57;73.58;95867.88;5008042;28;20034;-68
2021/12/31 04:18:56;;;;;;;10.05;6.90;;;;;;;3.48;73.57;95876.56;5007926;28;20026;-68
2021/12/31 04:21:23;;;;;;;12.35;7.68;;;;;;;3.80;74.23;95936.25;5007963;28;20103;-68
2021/12/31 04:24:04;;;;;;;9.95;5.97;;;;;;;3.64;74.29;95927.25;5007938;28;20033;-67
2021/12/31 04:26:30;;;;;;;12.20;7.57;;;;;;;3.70;74.24;95921.19;5007246;28;20033;-68
2021/12/31 04:28:56;;;;;;;11.25;7.68;;;;;;;3.62;74.45;95922.19;5007645;28;20042;-69
2021/12/31 04:31:21;;;;;;;11.02;7.65;;;;;;;3.21;74.69;95859.31;5007746;28;20030;-70
2021/12/31 04:33:47;;;;;;;10.77;6.45;;;;;;;3.31;75.00;95881.19;5007791;28;20048;-71
2021/12/31 04:36:12;;;;;;;9.77;6.63;;;;;;;3.60;74.48;95928.19;5008088;28;20038;-68
2021/12/31 04:38:38;;;;;;;10.73;7.30;;;;;;;3.56;74.70;95941.88;5007367;28;20397;-68
2021/12/31 04:41:03;;;;;;;11.13;7.22;;;;;;;3.56;74.99;95939.31;5006311;28;20137;-67
2021/12/31 04:43:29;;;;;;;11.15;6.72;;;;;;;3.53;75.27;95939.41;5007879;28;20037;-68
2021/12/31 04:45:55;;;;;;;10.77;6.95;;;;;;;3.56;74.63;95944.41;5007735;28;20033;-67
2021/12/31 04:48:20;;;;;;;10.43;6.95;;;;;;;3.36;75.27;95906.59;5006603;28;20092;-69
2021/12/31 04:50:46;;;;;;;12.55;7.70;;;;;;;3.54;75.46;95944.44;5006993;28;20128;-69
2021/12/31 04:53:11;;;;;;;12.68;7.72;;;;;;;3.52;75.58;95951.28;5007829;28;20034;-69
2021/12/31 04:55:37;;;;;;;18.05;12.30;;;;;;;3.44;75.66;95938.72;5008412;28;20057;-70
2021/12/31 04:58:02;;;;;;;10.43;7.05;;;;;;;3.48;75.52;95937.78;5010890;28;20086;-66
2021/12/31 05:00:28;;;;;;;11.52;7.35;;;;;;;3.44;75.54;95938.72;5011351;28;20073;-68
2021/12/31 05:02:53;;;;;;;13.05;7.82;;;;;;;3.31;75.75;95922.81;5011090;28;20623;-68
2021/12/31 05:05:19;;;;;;;11.18;6.90;;;;;;;3.39;75.77;95930.31;5011738;28;20477;-68
2021/12/31 05:07:44;;;;;;;12.52;7.72;;;;;;;3.40;75.77;95937.09;5011655;28;20029;-66
2021/12/31 05:10:10;;;;;;;12.13;7.82;;;;;;;2.87;75.94;95850.63;5011367;28;20026;-70
2021/12/31 05:12:37;;;;;;;10.63;6.07;;;;;;;3.32;75.76;95938.94;5011375;28;20393;-67
2021/12/31 05:15:07;;;;;;;9.65;5.50;;;;;;;3.34;75.64;95937.22;5010869;28;20583;-70
2021/12/31 05:17:33;;;;;;;10.98;7.13;;;;;;;3.19;76.24;95940.91;5011333;28;20466;-69
2021/12/31 05:19:59;;;;;;;10.23;6.88;;;;;;;3.33;75.67;95950.84;5011347;28;20018;-67
2021/12/31 05:22:24;;;;;;;12.55;6.78;;;;;;;3.26;75.81;95923.78;5011382;28;20026;-69
2021/12/31 05:24:50;;;;;;;12.13;7.57;;;;;;;3.53;75.79;95949.59;5011469;28;20038;-68
2021/12/31 05:27:15;;;;;;;10.90;7.65;;;;;;;3.44;75.52;95925.97;5010664;28;20026;-69
2021/12/31 05:29:40;;;;;;;12.90;7.30;;;;;;;3.04;74.82;95847.75;5011303;28;20034;-68
2021/12/31 05:32:06;;;;;;;10.32;7.38;;;;;;;3.74;74.82;95950.84;5011178;28;20124;-69
2021/12/31 05:34:32;;;;;;;10.57;7.47;;;;;;;3.65;73.80;95913.63;5011026;28;20049;-68
2021/12/31 05:36:57;;;;;;;9.88;6.97;;;;;;;3.85;73.49;95934.47;5010890;28;20553;-69
2021/12/31 05:39:25;;;;;;;12.18;7.55;;;;;;;3.38;73.36;95867.44;5008349;28;20038;-69
2021/12/31 05:41:50;;;;;;;9.77;6.70;;;;;;;3.77;73.65;95941.44;5009272;28;20417;-68
2021/12/31 05:44:15;;;;;;;10.60;7.45;;;;;;;3.47;74.07;95895.28;5010951;28;20026;-69
2021/12/31 05:46:44;;;;;;;10.85;6.95;;;;;;;3.02;74.05;95839.31;5010837;28;20176;-70
2021/12/31 05:49:10;;;;;;;12.65;8.02;;;;;;;3.49;74.89;95926.72;5010598;28;20471;-69
2021/12/31 05:51:35;;;;;;;14.88;7.80;;;;;;;3.58;75.23;95966.47;5010364;28;20113;-69
2021/12/31 05:54:01;;;;;;;13.52;8.35;;;;;;;3.53;75.34;95967.47;5010891;28;20057;-69
2021/12/31 05:56:26;;;;;;;13.27;7.03;;;;;;;3.71;75.14;95971.34;5010371;28;20040;-69
2021/12/31 05:58:52;;;;;;;15.98;8.65;;;;;;;3.39;75.34;95919.28;5010290;28;20837;-70
2021/12/31 06:01:17;;;;;;;17.35;8.95;;;;;;;3.63;74.72;95938.34;5009804;28;20033;-70
2021/12/31 06:03:43;;;;;;;12.15;8.15;;;;;;;3.94;74.42;95973.41;5010362;28;20033;-69
2021/12/31 06:06:08;;;;;;;14.18;9.07;;;;;;;3.74;74.03;95948.28;5010407;28;20022;-68
2021/12/31 06:08:33;;;;;;;11.45;7.82;;;;;;;3.83;73.55;95945.56;5010258;28;20026;-70
2021/12/31 06:10:59;;;;;;;13.18;8.23;;;;;;;4.11;73.37;95983.22;5009781;28;20022;-68
2021/12/31 06:13:24;;;;;;;10.38;7.55;;;;;;;4.26;72.59;95964.19;5009995;28;20104;-69
2021/12/31 06:15:56;;;;;;;10.35;7.40;;;;;;;3.74;71.83;95870.06;5010405;28;20135;-70
2021/12/31 06:18:21;;;;;;;;;;;;;;;4.43;71.83;95972.28;5010386;28;20408;-69
2021/12/31 06:20:47;;;;;;;13.68;8.55;;;;;;;3.88;72.07;95887.59;5010082;28;19913;-70
2021/12/31 06:23:13;;;;;;;14.73;8.05;;;;;;;4.43;72.21;95979.97;5009889;28;20180;-70
2021/12/31 06:25:38;;;;;;;13.75;8.30;;;;;;;4.55;70.98;95981.38;5009478;28;20137;-71
2021/12/31 06:28:04;;;;;;;12.93;8.65;;;;;;;4.65;71.30;95977.72;5009844;28;20025;-68
2021/12/31 06:30:29;;;;;;;15.63;8.43;;;;;;;4.66;71.63;95974.28;5009718;28;20038;-70
2021/12/31 06:32:55;;;;;;;15.10;8.95;;;;;;;4.82;70.57;95985.00;5009916;28;20033;-67
2021/12/31 06:35:20;;;;;;;13.18;8.98;;;;;;;4.67;70.57;95963.19;5009866;28;20034;-68
2021/12/31 06:37:48;;;;;;;13.00;8.20;;;;;;;4.69;70.01;95948.69;5008936;28;20029;-67
2021/12/31 06:40:14;;;;;;;12.05;8.00;;;;;;;4.97;69.65;95948.81;5008451;28;20137;-70
2021/12/31 06:42:40;;;;;;;16.25;9.60;;;;;;;5.31;69.24;95996.50;5009420;28;20508;-70
2021/12/31 06:45:06;;;;;;;13.05;8.82;;;;;;;5.41;69.05;95998.78;5009849;28;20022;-71
2021/12/31 06:47:31;;;;;;;17.55;9.23;;;;;;;5.48;67.87;95984.97;5009537;28;20113;-69
2021/12/31 06:49:57;;;;;;;14.75;9.60;;;;;;;4.93;67.89;95895.25;5008843;28;20022;-71
2021/12/31 06:52:22;;;;;;;14.07;8.85;;;;;;;5.48;68.14;95978.13;5008966;28;20101;-69
2021/12/31 06:54:48;;;;;;;13.13;9.00;;;;;;;5.71;67.37;95987.72;5008907;28;20026;-68
2021/12/31 06:57:13;;;;;;;13.15;8.80;;;;;;;5.74;67.10;95991.94;5008593;28;20041;-68
2021/12/31 06:59:39;;;;;;;15.23;9.07;;;;;;;5.78;66.77;95987.56;5008598;28;20460;-68
2021/12/31 07:02:04;;;;;;;16.48;10.18;;;;;;;5.62;66.74;95962.38;5008252;28;20025;-67
2021/12/31 07:04:30;;;;;;;14.60;9.70;;;;;;;5.67;66.47;95963.13;5008889;28;20547;-68
2021/12/31 07:06:56;;;;;;;14.15;8.57;;;;;;;5.84;65.55;95979.72;5008832;28;20028;-69
2021/12/31 07:09:22;;;;;;;14.30;8.38;;;;;;;5.94;65.39;95991.34;5008648;28;20049;-71
2021/12/31 07:11:48;;;;;;;11.15;7.78;;;;;;;5.98;65.55;95989.56;5009060;28;20045;-69
2021/12/31 07:14:13;;;;;;;12.50;8.38;;;;;;;6.09;65.33;95989.25;5008683;28;20109;-68
2021/12/31 07:16:39;;;;;;;12.25;8.68;;;;;;;6.29;64.39;95989.47;5009616;28;20091;-69
2021/12/31 07:19:04;;;;;;;15.38;9.10;;;;;;;6.40;64.77;95990.00;5008619;28;20022;-67
2021/12/31 07:21:30;;;;;;;12.13;9.00;;;;;;;6.40;64.28;95981.47;5009186;28;20042;-69
2021/12/31 07:23:55;;;;;;;13.98;9.63;;;;;;;6.40;63.68;95991.72;5008892;28;20108;-69
2021/12/31 07:26:20;;;;;;;13.05;8.82;;;;;;;6.46;63.53;95973.59;5008450;28;20026;-68
2021/12/31 07:28:46;;;;;;;12.30;8.38;;;;;;;6.38;63.58;95966.16;5009241;28;20118;-70
2021/12/31 07:31:14;;;;;;;14.30;9.68;;;;;;;6.55;64.33;95987.84;5008256;28;20084;-69
2021/12/31 07:33:40;;;;;;;14.63;10.20;;;;;;;6.72;63.58;95984.72;5008474;28;20069;-71
2021/12/31 07:36:05;;;;;;;15.68;10.18;;;;;;;6.76;63.15;95982.03;5008420;28;20022;-68
2021/12/31 07:38:34;;;;;;;16.90;11.27;;;;;;;6.75;62.88;95964.97;5007573;28;20045;-64
2021/12/31 07:41:00;;;;;;;16.23;10.65;;;;;;;6.63;62.98;95960.25;5007697;28;20456;-62
2021/12/31 07:43:26;;;;;;;18.30;12.57;;;;;;;6.80;62.76;95969.94;5003682;28;20501;-65
2021/12/31 07:45:53;;;;;;;15.43;11.35;;;;;;;6.74;63.19;95962.44;5005278;28;20030;-62
2021/12/31 07:48:19;;;;;;;20.13;12.57;;;;;;;6.96;63.07;95985.66;5004734;28;20029;-59
2021/12/31 07:50:46;;;;;;;20.23;11.68;;;;;;;7.03;62.87;95994.00;5002966;28;20550;-60
2021/12/31 07:53:12;;;;;;;19.05;11.77;;;;;;;6.87;62.95;95985.94;5005117;28;20439;-60
2021/12/31 07:55:37;;;;;;;19.25;12.00;;;;;;;7.07;62.64;95983.56;5005315;28;20876;-60
2021/12/31 07:58:03;;;;;;;21.27;12.40;;;;;;;6.94;61.75;95964.38;5004430;28;20037;-60
2021/12/31 08:00:29;;;;;;;17.25;11.27;;;;;;;7.05;61.48;95964.84;5005011;28;20033;-60
2021/12/31 08:02:55;;;;;;;16.38;11.35;;;;;;;7.23;61.35;95981.34;5004543;28;20619;-60
2021/12/31 08:05:22;;;;;;;15.18;10.57;;;;;;;7.48;61.14;95999.28;5019805;28;20153;-61
2021/12/31 08:07:48;;;;;;;12.90;9.13;;;;;;;7.40;60.52;95983.31;5004665;28;20022;-61
2021/12/31 08:10:13;;;;;;;13.23;9.25;;;;;;;7.37;60.80;95998.81;5004753;28;20136;-65
2021/12/31 08:12:39;;;;;;;13.93;8.75;;;;;;;7.28;60.86;95997.41;5004868;28;20034;-62
2021/12/31 08:15:05;;;;;;;12.60;8.25;;;;;;;7.30;61.01;95989.66;5003786;28;20111;-62
2021/12/31 08:17:31;;;;;;;19.88;9.52;;;;;;;7.25;61.43;95994.13;5004661;28;20022;-61
2021/12/31 08:19:57;;;;;;;14.52;10.15;;;;;;;7.27;61.09;96005.16;5002691;28;20559;-60
2021/12/31 08:22:23;;;;;;;13.50;9.48;;;;;;;7.13;61.38;95970.56;5004694;28;20468;-61
2021/12/31 08:24:48;;;;;;;15.93;10.93;;;;;;;7.50;60.71;96012.06;5004342;28;20034;-62
2021/12/31 08:27:14;;;;;;;17.13;10.35;;;;;;;7.23;61.13;95988.19;5004016;28;20417;-59
2021/12/31 08:29:39;;;;;;;13.85;9.50;;;;;;;7.64;60.59;96012.41;5004244;28;20461;-61
2021/12/31 08:32:05;;;;;;;15.05;10.45;;;;;;;7.88;60.22;96002.97;5007859;28;20036;-60
2021/12/31 08:34:31;;;;;;;15.13;9.80;;;;;;;8.16;59.08;95991.66;5008517;28;20468;-60
2021/12/31 08:36:57;;;;;;;15.63;9.82;;;;;;;8.55;58.47;95993.63;5008808;28;20054;-65
2021/12/31 08:39:22;;;;;;;13.13;9.32;;;;;;;8.87;56.29;95975.22;5007499;28;20054;-61
2021/12/31 08:41:48;;;;;;;12.77;9.10;;;;;;;10.27;52.94;95984.63;5005837;28;20402;-63
2021/12/31 08:44:14;;;;;;;13.20;9.63;;;;;;;12.87;48.38;95973.03;5008118;28;20030;-61
2021/12/31 08:46:40;;;;;;;12.05;8.55;;;;;;;15.25;41.74;95960.22;5007781;28;20037;-60
2021/12/31 08:49:06;;;;;;;12.60;9.20;;;;;;;15.74;39.05;95950.00;5008167;28;20106;-59
2021/12/31 08:51:31;;;;;;;15.05;9.48;;;;;;;16.87;36.82;95936.00;5007082;28;20108;-59
2021/12/31 08:53:57;;;;;;;15.75;11.48;;;;;;;17.51;35.20;95941.69;5018717;28;20493;-60
2021/12/31 08:56:22;;;;;;;18.13;12.20;;;;;;;18.18;34.09;95954.78;5008296;28;20030;-60
2021/12/31 08:58:48;;;;;;;13.15;9.88;;;;;;;18.68;32.88;95954.31;5009599;28;20018;-61
2021/12/31 09:01:14;;;;;;;14.90;10.60;;;;;;;19.06;31.89;95919.03;5008518;28;20061;-60
2021/12/31 09:03:39;;;;;;;16.65;10.85;;;;;;;18.85;31.20;95919.00;5007446;28;20038;-60
2021/12/31 09:06:06;;;;;;;14.98;10.45;;;;;;;18.85;32.20;95946.94;5007791;28;20038;-61
2021/12/31 09:08:34;;;;;;;13.38;10.00;;;;;;;19.48;30.98;95941.75;5009868;28;20418;-59
2021/12/31 09:11:00;;;;;;;12.10;8.80;;;;;;;20.90;28.47;95938.19;5011186;28;20034;-62
2021/12/31 09:13:27;;;;;;;14.63;9.68;;;;;;;20.57;28.77;95915.81;5010793;28;20608;-62
2021/12/31 09:15:53;;;;;;;12.63;9.48;;;;;;;20.96;28.05;95931.59;5010945;28;20033;-61
2021/12/31 09:18:19;;;;;;;16.80;10.45;;;;;;;21.42;27.43;95929.19;5011122;28;20026;-61
2021/12/31 09:20:44;;;;;;;14.57;10.45;;;;;;;22.58;25.85;95932.34;5010899;28;20017;-62
2021/12/31 09:23:10;;;;;;;13.30;10.82;;;;;;;21.54;26.62;95920.19;5011758;28;20492;-62
2021/12/31 09:25:35;;;;;;;18.65;11.27;;;;;;;21.39;27.12;95932.09;5011564;28;20018;-64
2021/12/31 09:28:01;;;;;;;17.10;11.18;;;;;;;21.08;27.44;95930.44;5010562;28;20101;-60
2021/12/31 09:30:27;;;;;;;18.77;12.30;;;;;;;20.22;28.50;95913.66;5010445;28;20041;-60
2021/12/31 09:32:52;;;;;;;16.15;12.23;;;;;;;21.89;26.59;95944.13;5006630;28;20032;-62
2021/12/31 09:35:17;;;;;;;15.82;11.75;;;;;;;23.57;24.61;95933.97;5007557;28;20482;-62
2021/12/31 09:37:43;;;;;;;15.60;10.95;;;;;;;23.05;24.59;95920.75;5007581;28;20533;-61
2021/12/31 09:40:09;;;;;;;17.20;12.63;;;;;;;21.54;26.50;95927.25;5007352;28;20029;-61
2021/12/31 09:42:36;;;;;;;16.08;11.27;;;;;;;19.28;29.62;95935.53;5007423;28;20485;-61
2021/12/31 09:45:03;;;;;;;15.52;11.32;;;;;;;18.08;31.47;95932.97;5010717;28;20029;-60
2021/12/31 09:47:31;;;;;;;15.07;11.68;;;;;;;19.44;29.84;95888.84;5008835;28;20371;-62
2021/12/31 09:49:57;;;;;;;15.95;12.57;;;;;;;20.15;28.66;95843.53;5007682;28;20400;-62
2021/12/31 09:52:25;;;;;;;16.73;12.23;;;;;;;20.53;28.40;95904.78;5009541;28;20097;-60
2021/12/31 09:54:56;;;;;;;16.73;12.45;;;;;;;22.06;26.49;95919.72;5008049;28;20099;-61
2021/12/31 09:57:21;;;;;;;14.80;11.10;;;;;;;23.65;24.72;95873.47;5008860;28;20045;-68
2021/12/31 09:59:50;;;;;;;27.23;13.93;;;;;;;25.00;22.66;95904.38;5009636;28;20511;-62
2021/12/31 10:02:29;;;;;;;16.30;13.43;;;;;;;25.19;22.49;95897.94;5011923;28;20041;-64
2021/12/31 10:04:57;;;;;;;12.80;10.70;;;;;;;25.95;21.67;95890.53;5005975;28;20040;-61
2021/12/31 10:07:24;;;;;;;17.75;10.73;;;;;;;27.57;20.37;95886.16;5009768;28;20041;-62
2021/12/31 10:10:06;;;;;;;16.35;12.35;;;;;;;28.45;19.26;95877.50;5010141;28;20030;-63
2021/12/31 10:12:44;;;;;;;13.27;10.52;;;;;;;29.17;18.23;95886.38;5009498;28;20444;-63
2021/12/31 10:15:10;;;;;;;15.75;11.75;;;;;;;28.93;18.32;95860.06;5008248;28;20091;-61
2021/12/31 10:17:35;;;;;;;11.88;8.55;;;;;;;29.10;18.11;95865.91;5006060;28;20030;-60
2021/12/31 10:20:01;;;;;;;12.05;10.00;;;;;;;26.75;20.25;95882.38;5008286;28;20034;-64
2021/12/31 10:22:26;;;;;;;11.38;9.50;;;;;;;25.25;22.09;95890.19;5008913;28;20075;-63
2021/12/31 10:24:52;;;;;;;11.73;9.38;;;;;;;25.63;21.91;95869.34;5009357;28;20029;-63
2021/12/31 10:27:23;;;;;;;10.90;8.88;;;;;;;23.67;23.78;95866.25;5009034;28;20034;-63
2021/12/31 10:29:57;;;;;;;12.43;10.00;;;;;;;22.72;24.90;95831.06;5009408;28;20042;-61
2021/12/31 10:32:25;;;;;;;12.70;9.02;;;;;;;23.57;24.47;95868.16;5020837;28;20424;-60
2021/12/31 10:34:51;;;;;;;11.93;8.55;;;;;;;23.12;24.99;95858.69;5027742;28;20061;-61
2021/12/31 10:37:26;;;;;;;11.77;8.98;;;;;;;23.96;23.63;95807.13;5028401;28;20052;-61
2021/12/31 10:40:00;;;;;;;12.95;9.57;;;;;;;24.27;23.62;95856.63;5023978;28;20030;-60
2021/12/31 10:42:31;;;;;;;18.95;11.10;;;;;;;21.75;26.44;95858.78;5006525;28;20095;-60
2021/12/31 10:44:58;;;;;;;12.68;9.05;;;;;;;19.24;30.45;95859.16;5007591;28;20037;-60
2021/12/31 10:47:34;;;;;;;11.63;8.38;;;;;;;19.03;31.15;95853.94;5014243;28;20018;-69
2021/12/31 10:50:02;;;;;;;15.07;9.40;;;;;;;17.94;32.86;95860.16;5028658;28;20038;-64
2021/12/31 10:52:43;;;;;;;17.80;11.35;;;;;;;16.86;34.98;95861.38;5028837;28;20030;-64
2021/12/31 10:55:17;;;;;;;16.52;10.82;;;;;;;16.36;36.42;95855.50;5009028;28;20068;-61
2021/12/31 10:57:46;;;;;;;11.80;8.48;;;;;;;16.26;37.05;95854.50;5007761;28;20045;-58
2021/12/31 11:00:12;;;;;;;13.43;8.85;;;;;;;15.72;37.99;95864.31;5007269;28;20040;-62
2021/12/31 11:02:39;;;;;;;14.02;9.07;;;;;;;14.86;39.49;95818.25;5006962;28;20033;-60
2021/12/31 11:05:06;;;;;;;15.35;9.73;;;;;;;14.31;41.07;95815.78;5023660;28;20030;-68
2021/12/31 11:07:32;;;;;;;13.13;9.20;;;;;;;14.09;41.79;95823.28;5007813;28;20022;-60
2021/12/31 11:09:58;;;;;;;17.42;11.88;;;;;;;14.22;42.41;95864.81;5008732;28;20033;-64
2021/12/31 11:12:26;;;;;;;16.42;9.05;;;;;;;14.21;42.41;95863.16;5008847;28;20389;-64
2021/12/31 11:14:52;;;;;;;12.25;8.43;;;;;;;14.09;42.64;95841.44;5007942;28;20093;-60
2021/12/31 11:17:18;;;;;;;14.10;8.68;;;;;;;14.19;42.36;95867.59;5011177;28;20052;-64
2021/12/31 11:19:45;;;;;;;13.63;8.93;;;;;;;13.88;43.36;95869.53;5007228;28;20481;-64
2021/12/31 11:22:13;;;;;;;14.57;9.40;;;;;;;13.68;43.69;95866.41;5004190;28;20034;-67
2021/12/31 11:24:39;;;;;;;13.82;8.93;;;;;;;13.35;44.88;95877.09;5006721;28;20135;-63
2021/12/31 11:27:26;;;;;;;20.00;10.68;;;;;;;13.27;45.80;95868.94;5008249;28;20037;-62